
Distance (Route):
Temperature : 0°C
Humidity : 0%
Pressure : 0hPa| Receiver | Frames | First received | Last received |
|---|---|---|---|
| LZ4TU-5 | 186 | 2026-09-03 06:20:42 | 2026-09-03 07:37:37 |
| Receiver | Date | Latitude | Longitude | Direction | Speed | Altitude | Climb | Temperature | Humidity | Pressure | Voltage | Killtimer | Uptime | BKT | XDATA |
|---|---|---|---|---|---|---|---|---|---|---|---|---|---|---|---|
| LZ4TU-5 | 2026-09-03 07:37:37 | 40.78114 | 23.67788 | 47° | 108km/h | 11339m | -17.9m/s | 0°C | 0% | 0hPa | 0V | 00:00:00 | 00:00:00 | 00:00:00 | |
| LZ4TU-5 | 2026-09-03 07:37:33 | 40.78043 | 23.67684 | 50° | 110km/h | 11408m | -17.5m/s | 0°C | 0% | 0hPa | 0V | 00:00:00 | 00:00:00 | 00:00:00 | |
| LZ4TU-5 | 2026-09-03 07:37:29 | 40.77973 | 23.67572 | 53° | 111km/h | 11478m | -17.2m/s | 11.9°C | 27.8% | 0hPa | 0V | 00:00:00 | 00:00:00 | 00:00:00 | |
| LZ4TU-5 | 2026-09-03 07:37:24 | 40.77885 | 23.67424 | 54° | 115km/h | 11564m | -17.8m/s | 11.9°C | 27.8% | 0hPa | 0V | 00:00:00 | 00:00:00 | 00:00:00 | |
| LZ4TU-5 | 2026-09-03 07:36:19 | 40.77221 | 23.65501 | 72° | 88km/h | 12753m | -18.4m/s | 0°C | 0% | 0hPa | 0V | 00:00:00 | 00:00:00 | 00:00:00 | |
| LZ4TU-5 | 2026-09-03 07:36:14 | 40.77186 | 23.65368 | 72° | 88km/h | 12848m | -17.7m/s | 0°C | 0% | 0hPa | 0V | 00:00:00 | 00:00:00 | 00:00:00 | |
| LZ4TU-5 | 2026-09-03 07:36:09 | 40.77151 | 23.65232 | 69° | 86km/h | 12943m | -18.1m/s | 11.9°C | 27.8% | 0hPa | 0V | 00:00:00 | 00:00:00 | 00:00:00 | |
| LZ4TU-5 | 2026-09-03 07:36:05 | 40.77117 | 23.65125 | 66° | 91km/h | 13020m | -17.5m/s | 11.9°C | 27.8% | 0hPa | 0V | 00:00:00 | 00:00:00 | 00:00:00 | |
| LZ4TU-5 | 2026-09-03 07:34:59 | 40.76473 | 23.63236 | 65° | 91km/h | 14329m | -20.1m/s | 0°C | 0% | 0hPa | 0V | 00:00:00 | 00:00:00 | 00:00:00 | |
| LZ4TU-5 | 2026-09-03 07:34:54 | 40.76422 | 23.63097 | 67° | 91km/h | 14435m | -20.4m/s | 0°C | 0% | 0hPa | 0V | 00:00:00 | 00:00:00 | 00:00:00 | |
| LZ4TU-5 | 2026-09-03 07:34:50 | 40.76385 | 23.62986 | 66° | 91km/h | 14520m | -21.0m/s | 11.9°C | 27.8% | 0hPa | 0V | 00:00:00 | 00:00:00 | 00:00:00 | |
| LZ4TU-5 | 2026-09-03 07:34:45 | 40.76346 | 23.62846 | 73° | 88km/h | 14628m | -21.8m/s | 11.9°C | 27.8% | 0hPa | 0V | 00:00:00 | 00:00:00 | 00:00:00 | |
| LZ4TU-5 | 2026-09-03 07:33:37 | 40.75980 | 23.61364 | 62° | 60km/h | 16164m | -22.6m/s | 11.9°C | 27.8% | 0hPa | 0V | 00:00:00 | 00:00:00 | 00:00:00 | |
| LZ4TU-5 | 2026-09-03 07:33:32 | 40.75945 | 23.61269 | 68° | 64km/h | 16279m | -23.8m/s | 11.9°C | 27.8% | 0hPa | 0V | 00:00:00 | 00:00:00 | 00:00:00 | |
| LZ4TU-5 | 2026-09-03 07:32:26 | 40.75821 | 23.60180 | 96° | 40km/h | 17944m | -27.6m/s | 11.9°C | 27.8% | 0hPa | 0V | 00:00:00 | 00:00:00 | 00:00:00 | |
| LZ4TU-5 | 2026-09-03 07:32:22 | 40.75829 | 23.60129 | 103° | 35km/h | 18055m | -26.2m/s | 11.9°C | 0% | 0hPa | 0V | 00:00:00 | 00:00:00 | 00:00:00 | |
| LZ4TU-5 | 2026-09-03 07:31:14 | 40.75889 | 23.59691 | 226° | 5km/h | 20064m | -31.7m/s | 11.9°C | 27.8% | 0hPa | 0V | 00:00:00 | 00:00:00 | 00:00:00 | |
| LZ4TU-5 | 2026-09-03 07:31:09 | 40.75889 | 23.59698 | 344° | 7km/h | 20225m | -31.7m/s | 11.9°C | 27.8% | 0hPa | 0V | 00:00:00 | 00:00:00 | 00:00:00 | |
| LZ4TU-5 | 2026-09-03 07:31:03 | 40.75880 | 23.59696 | 72° | 7km/h | 20422m | -31.6m/s | 11.9°C | 27.8% | 0hPa | 0V | 00:00:00 | 00:00:00 | 00:00:00 | |
| LZ4TU-5 | 2026-09-03 07:30:58 | 40.75877 | 23.59680 | 88° | 7km/h | 20586m | -32.5m/s | 11.9°C | 27.8% | 0hPa | 0V | 00:00:00 | 00:00:00 | 00:00:00 | |
| LZ4TU-5 | 2026-09-03 07:30:52 | 40.75878 | 23.59674 | 26° | 5km/h | 20787m | -31.6m/s | 11.9°C | 27.8% | 0hPa | 0V | 00:00:00 | 00:00:00 | 00:00:00 | |
| LZ4TU-5 | 2026-09-03 07:30:32 | 40.75871 | 23.59672 | 62° | 7km/h | 21472m | -35.4m/s | 11.9°C | 27.8% | 0hPa | 0V | 00:00:00 | 00:00:00 | 00:00:00 | |
| LZ4TU-5 | 2026-09-03 07:30:22 | 40.75880 | 23.59675 | 235° | 11km/h | 21829m | -35.0m/s | 11.9°C | 27.8% | 0hPa | 0V | 00:00:00 | 00:00:00 | 00:00:00 | |
| LZ4TU-5 | 2026-09-03 07:29:16 | 40.75904 | 23.59860 | 241° | 16km/h | 24467m | -43.1m/s | 11.9°C | 27.8% | 0hPa | 0V | 00:00:00 | 00:00:00 | 00:00:00 | |
| LZ4TU-5 | 2026-09-03 07:29:11 | 40.75912 | 23.59884 | 251° | 16km/h | 24690m | -44.2m/s | 11.9°C | 27.8% | 0hPa | 0V | 00:00:00 | 00:00:00 | 00:00:00 | |
| LZ4TU-5 | 2026-09-03 07:28:06 | 40.75846 | 23.60277 | 267° | 13km/h | 27953m | -55.1m/s | 11.9°C | 27.8% | 0hPa | 0V | 00:00:00 | 00:00:00 | 00:00:00 | |
| LZ4TU-5 | 2026-09-03 07:28:03 | 40.75845 | 23.60293 | 290° | 16km/h | 28178m | -56.1m/s | 11.9°C | 0% | 0hPa | 0V | 00:00:00 | 00:00:00 | 00:00:00 | |
| LZ4TU-5 | 2026-09-03 07:26:54 | 40.75735 | 23.60789 | 316° | 29km/h | 32733m | -59.3m/s | 11.9°C | 27.8% | 0hPa | 0V | 00:00:00 | 00:00:00 | 00:00:00 | |
| LZ4TU-5 | 2026-09-03 07:26:49 | 40.75690 | 23.60814 | 323° | 42km/h | 32921m | -12.6m/s | 11.9°C | 27.8% | 0hPa | 0V | 00:00:00 | 00:00:00 | 00:00:00 | |
| LZ4TU-5 | 2026-09-03 07:26:44 | 40.75680 | 23.60904 | 281° | 42km/h | 32917m | 5.3m/s | 11.9°C | 27.8% | 0hPa | 0V | 00:00:00 | 00:00:00 | 00:00:00 | |
| LZ4TU-5 | 2026-09-03 07:25:38 | 40.75641 | 23.61372 | 309° | 15km/h | 32568m | 5.3m/s | 11.9°C | 27.8% | 0hPa | 0V | 00:00:00 | 00:00:00 | 00:00:00 | |
| LZ4TU-5 | 2026-09-03 07:25:34 | 40.75628 | 23.61391 | 308° | 24km/h | 32546m | 4.6m/s | 11.9°C | 27.8% | 0hPa | 0V | 00:00:00 | 00:00:00 | 00:00:00 | |
| LZ4TU-5 | 2026-09-03 07:24:29 | 40.75482 | 23.61848 | 341° | 9km/h | 32198m | 5.0m/s | 11.9°C | 27.8% | 0hPa | 0V | 00:00:00 | 00:00:00 | 00:00:00 | |
| LZ4TU-5 | 2026-09-03 07:24:24 | 40.75470 | 23.61877 | 287° | 33km/h | 32172m | 3.8m/s | 11.9°C | 27.8% | 0hPa | 0V | 00:00:00 | 00:00:00 | 00:00:00 | |
| LZ4TU-5 | 2026-09-03 07:23:18 | 40.75315 | 23.62276 | 298° | 26km/h | 31813m | 6.5m/s | 0°C | 0% | 0hPa | 0V | 00:00:00 | 00:00:00 | 00:00:00 | |
| LZ4TU-5 | 2026-09-03 07:23:14 | 40.75298 | 23.62311 | 325° | 27km/h | 31792m | 6.5m/s | 0°C | 0% | 0hPa | 0V | 00:00:00 | 00:00:00 | 00:00:00 | |
| LZ4TU-5 | 2026-09-03 07:23:09 | 40.75270 | 23.62327 | 300° | 33km/h | 31765m | 7.9m/s | 11.9°C | 27.8% | 0hPa | 0V | 00:00:00 | 00:00:00 | 00:00:00 | |
| LZ4TU-5 | 2026-09-03 07:23:04 | 40.75245 | 23.62381 | 342° | 35km/h | 31737m | 6.7m/s | 11.9°C | 27.8% | 0hPa | 0V | 00:00:00 | 00:00:00 | 00:00:00 | |
| LZ4TU-5 | 2026-09-03 07:21:59 | 40.74791 | 23.62972 | 268° | 49km/h | 31385m | 4.4m/s | 0°C | 0% | 0hPa | 0V | 00:00:00 | 00:00:00 | 00:00:00 | |
| LZ4TU-5 | 2026-09-03 07:21:55 | 40.74779 | 23.63018 | 331° | 31km/h | 31364m | 5.0m/s | 0°C | 0% | 0hPa | 0V | 00:00:00 | 00:00:00 | 00:00:00 | |
| LZ4TU-5 | 2026-09-03 07:21:50 | 40.74766 | 23.63058 | 262° | 49km/h | 31338m | 5.1m/s | 11.9°C | 27.8% | 0hPa | 0V | 00:00:00 | 00:00:00 | 00:00:00 | |
| LZ4TU-5 | 2026-09-03 07:21:46 | 40.74758 | 23.63121 | 307° | 40km/h | 31317m | 5.0m/s | 11.9°C | 0% | 0hPa | 0V | 00:00:00 | 00:00:00 | 00:00:00 | |
| LZ4TU-5 | 2026-09-03 07:20:41 | 40.74735 | 23.63882 | 273° | 35km/h | 30971m | 5.9m/s | 0°C | 0% | 0hPa | 0V | 00:00:00 | 00:00:00 | 00:00:00 | |
| LZ4TU-5 | 2026-09-03 07:20:36 | 40.74721 | 23.63936 | 276° | 22km/h | 30943m | 6.3m/s | 0°C | 0% | 0hPa | 0V | 00:00:00 | 00:00:00 | 00:00:00 | |
| LZ4TU-5 | 2026-09-03 07:20:31 | 40.74721 | 23.63975 | 295° | 40km/h | 30917m | 7.1m/s | 11.9°C | 27.8% | 0hPa | 0V | 00:00:00 | 00:00:00 | 00:00:00 | |
| LZ4TU-5 | 2026-09-03 07:20:27 | 40.74708 | 23.64031 | 268° | 38km/h | 30896m | 6.1m/s | 11.9°C | 27.8% | 0hPa | 0V | 00:00:00 | 00:00:00 | 00:00:00 | |
| LZ4TU-5 | 2026-09-03 07:19:22 | 40.74684 | 23.64552 | 311° | 5km/h | 30542m | 6.6m/s | 0°C | 0% | 0hPa | 0V | 00:00:00 | 00:00:00 | 00:00:00 | |
| LZ4TU-5 | 2026-09-03 07:19:17 | 40.74693 | 23.64562 | 271° | 15km/h | 30514m | 6.0m/s | 0°C | 0% | 0hPa | 0V | 00:00:00 | 00:00:00 | 00:00:00 | |
| LZ4TU-5 | 2026-09-03 07:19:12 | 40.74691 | 23.64588 | 215° | 13km/h | 30486m | 5.6m/s | 11.9°C | 27.8% | 0hPa | 0V | 00:00:00 | 00:00:00 | 00:00:00 | |
| LZ4TU-5 | 2026-09-03 07:19:08 | 40.74694 | 23.64592 | 331° | 11km/h | 30464m | 5.1m/s | 11.9°C | 27.8% | 0hPa | 0V | 00:00:00 | 00:00:00 | 00:00:00 | |
| LZ4TU-5 | 2026-09-03 07:18:02 | 40.74654 | 23.64935 | 254° | 29km/h | 30094m | 5.3m/s | 11.9°C | 27.8% | 0hPa | 0V | 00:00:00 | 00:00:00 | 00:00:00 | |
| LZ4TU-5 | 2026-09-03 07:17:58 | 40.74656 | 23.64969 | 291° | 24km/h | 30072m | 5.6m/s | 11.9°C | 27.8% | 0hPa | 0V | 00:00:00 | 00:00:00 | 00:00:00 | |
| LZ4TU-5 | 2026-09-03 07:16:53 | 40.74496 | 23.65590 | 279° | 29km/h | 29711m | 4.6m/s | 11.9°C | 27.8% | 0hPa | 0V | 00:00:00 | 00:00:00 | 00:00:00 | |
| LZ4TU-5 | 2026-09-03 07:16:48 | 40.74474 | 23.65638 | 289° | 37km/h | 29686m | 5.1m/s | 11.9°C | 27.8% | 0hPa | 0V | 00:00:00 | 00:00:00 | 00:00:00 | |
| LZ4TU-5 | 2026-09-03 07:15:42 | 40.74536 | 23.66145 | 285° | 13km/h | 29340m | 4.1m/s | 11.9°C | 27.8% | 0hPa | 0V | 00:00:00 | 00:00:00 | 00:00:00 | |
| LZ4TU-5 | 2026-09-03 07:15:37 | 40.74538 | 23.66180 | 293° | 22km/h | 29315m | 6.3m/s | 11.9°C | 27.8% | 0hPa | 0V | 00:00:00 | 00:00:00 | 00:00:00 | |
| LZ4TU-5 | 2026-09-03 07:14:32 | 40.74583 | 23.66637 | 259° | 13km/h | 28980m | 6.3m/s | 11.9°C | 27.8% | 0hPa | 0V | 00:00:00 | 00:00:00 | 00:00:00 | |
| LZ4TU-5 | 2026-09-03 07:14:28 | 40.74584 | 23.66654 | 307° | 15km/h | 28959m | 5.9m/s | 11.9°C | 27.8% | 0hPa | 0V | 00:00:00 | 00:00:00 | 00:00:00 | |
| LZ4TU-5 | 2026-09-03 07:13:23 | 40.74456 | 23.66879 | 255° | 5km/h | 28623m | 3.9m/s | 11.9°C | 27.8% | 0hPa | 0V | 00:00:00 | 00:00:00 | 00:00:00 | |
| LZ4TU-5 | 2026-09-03 07:13:19 | 40.74445 | 23.66897 | 298° | 22km/h | 28603m | 4.3m/s | 11.9°C | 27.8% | 0hPa | 0V | 00:00:00 | 00:00:00 | 00:00:00 | |
| LZ4TU-5 | 2026-09-03 07:12:13 | 40.74365 | 23.67303 | 257° | 38km/h | 28264m | 3.8m/s | 11.9°C | 27.8% | 0hPa | 0V | 00:00:00 | 00:00:00 | 00:00:00 | |
| LZ4TU-5 | 2026-09-03 07:12:09 | 40.74391 | 23.67324 | 179° | 26km/h | 28242m | 4.3m/s | 11.9°C | 27.8% | 0hPa | 0V | 00:00:00 | 00:00:00 | 00:00:00 | |
| LZ4TU-5 | 2026-09-03 07:11:04 | 40.74547 | 23.67554 | 304° | 15km/h | 27909m | 5.3m/s | 11.9°C | 27.8% | 0hPa | 0V | 00:00:00 | 00:00:00 | 00:00:00 | |
| LZ4TU-5 | 2026-09-03 07:10:59 | 40.74534 | 23.67573 | 342° | 16km/h | 27883m | 6.5m/s | 11.9°C | 0% | 0hPa | 0V | 00:00:00 | 00:00:00 | 00:00:00 | |
| LZ4TU-5 | 2026-09-03 07:09:53 | 40.74428 | 23.67668 | 14° | 7km/h | 27544m | 6.3m/s | 11.9°C | 27.8% | 0hPa | 0V | 00:00:00 | 00:00:00 | 00:00:00 | |
| LZ4TU-5 | 2026-09-03 07:09:48 | 40.74416 | 23.67666 | 266° | 9km/h | 27518m | 5.2m/s | 11.9°C | 27.8% | 0hPa | 0V | 00:00:00 | 00:00:00 | 00:00:00 | |
| LZ4TU-5 | 2026-09-03 07:08:43 | 40.74282 | 23.67962 | 294° | 27km/h | 27181m | 4.4m/s | 11.9°C | 27.8% | 0hPa | 0V | 00:00:00 | 00:00:00 | 00:00:00 | |
| LZ4TU-5 | 2026-09-03 07:08:38 | 40.74280 | 23.67984 | 238° | 16km/h | 27153m | 5.6m/s | 11.9°C | 0% | 0hPa | 0V | 00:00:00 | 00:00:00 | 00:00:00 | |
| LZ4TU-5 | 2026-09-03 07:07:33 | 40.74252 | 23.68438 | 267° | 22km/h | 26806m | 5.3m/s | 11.9°C | 27.8% | 0hPa | 0V | 00:00:00 | 00:00:00 | 00:00:00 | |
| LZ4TU-5 | 2026-09-03 07:07:28 | 40.74253 | 23.68462 | 258° | 18km/h | 26778m | 5.5m/s | 11.9°C | 27.8% | 0hPa | 0V | 00:00:00 | 00:00:00 | 00:00:00 | |
| LZ4TU-5 | 2026-09-03 07:06:22 | 40.74128 | 23.68852 | 281° | 18km/h | 26426m | 5.1m/s | 11.9°C | 27.8% | 0hPa | 0V | 00:00:00 | 00:00:00 | 00:00:00 | |
| LZ4TU-5 | 2026-09-03 07:06:18 | 40.74117 | 23.68895 | 312° | 44km/h | 26408m | 4.8m/s | 11.9°C | 27.8% | 0hPa | 0V | 00:00:00 | 00:00:00 | 00:00:00 | |
| LZ4TU-5 | 2026-09-03 07:02:03 | 40.73942 | 23.70945 | 236° | 38km/h | 25102m | 5.6m/s | 13.7°C | 40.8% | 0hPa | 0V | 00:00:00 | 00:00:00 | 00:00:00 | |
| LZ4TU-5 | 2026-09-03 07:01:58 | 40.73962 | 23.70989 | 242° | 26km/h | 25077m | 4.3m/s | 13.7°C | 40.8% | 0hPa | 0V | 00:00:00 | 00:00:00 | 00:00:00 | |
| LZ4TU-5 | 2026-09-03 07:01:53 | 40.73990 | 23.71042 | 247° | 44km/h | 25052m | 4.2m/s | 11.9°C | 27.8% | 0hPa | 0V | 00:00:00 | 00:00:00 | 00:00:00 | |
| LZ4TU-5 | 2026-09-03 07:01:49 | 40.74009 | 23.71080 | 212° | 24km/h | 25033m | 5.0m/s | 11.9°C | 27.8% | 0hPa | 0V | 00:00:00 | 00:00:00 | 00:00:00 | |
| LZ4TU-5 | 2026-09-03 07:00:17 | 40.74286 | 23.71386 | 188° | 11km/h | 24566m | 4.2m/s | 13.7°C | 40.8% | 0hPa | 0V | 00:00:00 | 00:00:00 | 00:00:00 | |
| LZ4TU-5 | 2026-09-03 07:00:07 | 40.74332 | 23.71423 | 188° | 15km/h | 24513m | 6.4m/s | 11.9°C | 27.8% | 0hPa | 0V | 00:00:00 | 00:00:00 | 00:00:00 | |
| LZ4TU-5 | 2026-09-03 07:00:03 | 40.74356 | 23.71431 | 207° | 35km/h | 24491m | 4.4m/s | 11.9°C | 0% | 0hPa | 0V | 00:00:00 | 00:00:00 | 00:00:00 | |
| LZ4TU-5 | 2026-09-03 06:58:50 | 40.74336 | 23.71616 | 313° | 33km/h | 24123m | 3.4m/s | 13.7°C | 40.8% | 0hPa | 0V | 00:00:00 | 00:00:00 | 00:00:00 | |
| LZ4TU-5 | 2026-09-03 06:58:45 | 40.74318 | 23.71647 | 305° | 18km/h | 24101m | 4.6m/s | 13.7°C | 40.8% | 0hPa | 0V | 00:00:00 | 00:00:00 | 00:00:00 | |
| LZ4TU-5 | 2026-09-03 06:58:40 | 40.74301 | 23.71683 | 310° | 22km/h | 24075m | 4.5m/s | 11.9°C | 27.8% | 0hPa | 0V | 00:00:00 | 00:00:00 | 00:00:00 | |
| LZ4TU-5 | 2026-09-03 06:58:35 | 40.74289 | 23.71717 | 294° | 24km/h | 24052m | 4.0m/s | 11.9°C | 27.8% | 0hPa | 0V | 00:00:00 | 00:00:00 | 00:00:00 | |
| LZ4TU-5 | 2026-09-03 06:57:23 | 40.74204 | 23.72072 | 294° | 18km/h | 23707m | 4.5m/s | 13.7°C | 40.8% | 0hPa | 0V | 00:00:00 | 00:00:00 | 00:00:00 | |
| LZ4TU-5 | 2026-09-03 06:57:18 | 40.74202 | 23.72100 | 231° | 9km/h | 23683m | 4.2m/s | 13.7°C | 40.8% | 0hPa | 0V | 00:00:00 | 00:00:00 | 00:00:00 | |
| LZ4TU-5 | 2026-09-03 06:57:13 | 40.74210 | 23.72127 | 274° | 20km/h | 23660m | 5.2m/s | 11.9°C | 27.8% | 0hPa | 0V | 00:00:00 | 00:00:00 | 00:00:00 | |
| LZ4TU-5 | 2026-09-03 06:57:08 | 40.74212 | 23.72154 | 237° | 24km/h | 23637m | 4.5m/s | 11.9°C | 27.8% | 0hPa | 0V | 00:00:00 | 00:00:00 | 00:00:00 | |
| LZ4TU-5 | 2026-09-03 06:55:51 | 40.74415 | 23.72433 | 290° | 11km/h | 23278m | 5.1m/s | 13.7°C | 40.8% | 0hPa | 0V | 00:00:00 | 00:00:00 | 00:00:00 | |
| LZ4TU-5 | 2026-09-03 06:55:46 | 40.74415 | 23.72439 | 44° | 4km/h | 23254m | 3.7m/s | 13.7°C | 0% | 0hPa | 0V | 00:00:00 | 00:00:00 | 00:00:00 | |
| LZ4TU-5 | 2026-09-03 06:55:41 | 40.74419 | 23.72455 | 278° | 16km/h | 23229m | 5.9m/s | 11.9°C | 27.8% | 0hPa | 0V | 00:00:00 | 00:00:00 | 00:00:00 | |
| LZ4TU-5 | 2026-09-03 06:55:37 | 40.74416 | 23.72472 | 242° | 13km/h | 23210m | 4.0m/s | 11.9°C | 27.8% | 0hPa | 0V | 00:00:00 | 00:00:00 | 00:00:00 | |
| LZ4TU-5 | 2026-09-03 06:54:15 | 40.74553 | 23.72634 | 127° | 11km/h | 22812m | 4.5m/s | 13.3°C | 39.5% | 0hPa | 0V | 00:00:00 | 00:00:00 | 00:00:00 | |
| LZ4TU-5 | 2026-09-03 06:54:11 | 40.74554 | 23.72630 | 132° | 2km/h | 22792m | 5.6m/s | -25.2°C | 26.7% | 0hPa | 0V | 00:00:00 | 00:00:00 | 00:00:00 | |
| LZ4TU-5 | 2026-09-03 06:54:06 | 40.74546 | 23.72621 | 33° | 11km/h | 22768m | 3.8m/s | -25.2°C | 26.7% | 0hPa | 0V | 00:00:00 | 00:00:00 | 00:00:00 | |
| LZ4TU-5 | 2026-09-03 06:54:01 | 40.74545 | 23.72620 | 330° | 4km/h | 22743m | 3.9m/s | -25.2°C | 26.7% | 0hPa | 0V | 00:00:00 | 00:00:00 | 00:00:00 | |
| LZ4TU-5 | 2026-09-03 06:53:56 | 40.74537 | 23.72612 | 37° | 16km/h | 22718m | 6.0m/s | -25.2°C | 26.7% | 0hPa | 0V | 00:00:00 | 00:00:00 | 00:00:00 | |
| LZ4TU-5 | 2026-09-03 06:53:51 | 40.74531 | 23.72610 | 219° | 5km/h | 22695m | 3.9m/s | 11.9°C | 27.8% | 0hPa | 0V | 00:00:00 | 00:00:00 | 00:00:00 | |
| LZ4TU-5 | 2026-09-03 06:50:45 | 40.74310 | 23.72890 | 181° | 11km/h | 21814m | 4.7m/s | -25.2°C | 26.7% | 0hPa | 0V | 00:00:00 | 00:00:00 | 00:00:00 | |
| LZ4TU-5 | 2026-09-03 06:50:41 | 40.74318 | 23.72891 | 164° | 2km/h | 21796m | 4.0m/s | -25.2°C | 26.7% | 0hPa | 0V | 00:00:00 | 00:00:00 | 00:00:00 | |
| LZ4TU-5 | 2026-09-03 06:50:36 | 40.74321 | 23.72879 | 81° | 11km/h | 21772m | 4.4m/s | -25.2°C | 26.7% | 0hPa | 0V | 00:00:00 | 00:00:00 | 00:00:00 | |
| LZ4TU-5 | 2026-09-03 06:50:32 | 40.74326 | 23.72867 | 139° | 13km/h | 21755m | 3.5m/s | -25.2°C | 26.7% | 0hPa | 0V | 00:00:00 | 00:00:00 | 00:00:00 | |
| LZ4TU-5 | 2026-09-03 06:50:27 | 40.74327 | 23.72848 | 106° | 13km/h | 21734m | 5.1m/s | -25.2°C | 26.7% | 0hPa | 0V | 00:00:00 | 00:00:00 | 00:00:00 | |
| LZ4TU-5 | 2026-09-03 06:50:22 | 40.74330 | 23.72838 | 77° | 7km/h | 21713m | 4.0m/s | -25.2°C | 26.7% | 0hPa | 0V | 00:00:00 | 00:00:00 | 00:00:00 | |
| LZ4TU-5 | 2026-09-03 06:50:18 | 40.74330 | 23.72822 | 71° | 13km/h | 21695m | 4.8m/s | -56.4°C | 0.0% | 0hPa | 0V | 00:00:00 | 00:00:00 | 00:00:00 | |
| LZ4TU-5 | 2026-09-03 06:50:14 | 40.74327 | 23.72813 | 60° | 4km/h | 21677m | 3.8m/s | -56.4°C | 0.0% | 0hPa | 0V | 00:00:00 | 00:00:00 | 00:00:00 | |
| LZ4TU-5 | 2026-09-03 06:50:10 | 40.74320 | 23.72804 | 68° | 15km/h | 21658m | 5.2m/s | -56.4°C | 0.0% | 0hPa | 0V | 00:00:00 | 00:00:00 | 00:00:00 | |
| LZ4TU-5 | 2026-09-03 06:50:06 | 40.74316 | 23.72786 | 58° | 11km/h | 21640m | 2.7m/s | -56.4°C | 0.0% | 0hPa | 0V | 00:00:00 | 00:00:00 | 00:00:00 | |
| LZ4TU-5 | 2026-09-03 06:50:01 | 40.74311 | 23.72777 | 44° | 16km/h | 21619m | 5.2m/s | -56.4°C | 0.0% | 0hPa | 0V | 00:00:00 | 00:00:00 | 00:00:00 | |
| LZ4TU-5 | 2026-09-03 06:47:42 | 40.74374 | 23.72687 | 79° | 5km/h | 20982m | 4.2m/s | -56.4°C | 0.0% | 0hPa | 0V | 00:00:00 | 00:00:00 | 00:00:00 | |
| LZ4TU-5 | 2026-09-03 06:47:37 | 40.74371 | 23.72675 | 72° | 4km/h | 20957m | 5.2m/s | -56.4°C | 0.0% | 0hPa | 0V | 00:00:00 | 00:00:00 | 00:00:00 | |
| LZ4TU-5 | 2026-09-03 06:44:45 | 40.74403 | 23.72316 | 280° | 7km/h | 20178m | 3.8m/s | -52.8°C | 0.0% | 0hPa | 0V | 00:00:00 | 00:00:00 | 00:00:00 | |
| LZ4TU-5 | 2026-09-03 06:44:38 | 40.74408 | 23.72327 | 225° | 9km/h | 20146m | 5.4m/s | -52.8°C | 0.0% | 0hPa | 0V | 00:00:00 | 00:00:00 | 00:00:00 | |
| LZ4TU-5 | 2026-09-03 06:44:32 | 40.74413 | 23.72336 | 119° | 5km/h | 20119m | 5.5m/s | -52.8°C | 0.0% | 0hPa | 0V | 00:00:00 | 00:00:00 | 00:00:00 | |
| LZ4TU-5 | 2026-09-03 06:44:26 | 40.74427 | 23.72343 | 217° | 20km/h | 20090m | 4.0m/s | -52.8°C | 0.0% | 0hPa | 0V | 00:00:00 | 00:00:00 | 00:00:00 | |
| LZ4TU-5 | 2026-09-03 06:44:21 | 40.74436 | 23.72350 | 116° | 13km/h | 20068m | 5.9m/s | -52.8°C | 0.0% | 0hPa | 0V | 00:00:00 | 00:00:00 | 00:00:00 | |
| LZ4TU-5 | 2026-09-03 06:44:15 | 40.74454 | 23.72342 | 187° | 13km/h | 20039m | 5.7m/s | -52.8°C | 0.0% | 0hPa | 0V | 00:00:00 | 00:00:00 | 00:00:00 | |
| LZ4TU-5 | 2026-09-03 06:44:08 | 40.74479 | 23.72324 | 134° | 24km/h | 20006m | 3.9m/s | -52.8°C | 0.0% | 0hPa | 0V | 00:00:00 | 00:00:00 | 00:00:00 | |
| LZ4TU-5 | 2026-09-03 06:44:04 | 40.74489 | 23.72310 | 142° | 9km/h | 19988m | 5.3m/s | -52.8°C | 0.0% | 0hPa | 0V | 00:00:00 | 00:00:00 | 00:00:00 | |
| LZ4TU-5 | 2026-09-03 06:43:59 | 40.74503 | 23.72297 | 144° | 18km/h | 19966m | 3.5m/s | -52.8°C | 0.0% | 0hPa | 0V | 00:00:00 | 00:00:00 | 00:00:00 | |
| LZ4TU-5 | 2026-09-03 06:43:53 | 40.74525 | 23.72267 | 108° | 18km/h | 19939m | 3.3m/s | -52.8°C | 0.0% | 0hPa | 0V | 00:00:00 | 00:00:00 | 00:00:00 | |
| LZ4TU-5 | 2026-09-03 06:43:49 | 40.74538 | 23.72234 | 128° | 35km/h | 19922m | 4.6m/s | -56.4°C | 0.0% | 0hPa | 0V | 00:00:00 | 00:00:00 | 00:00:00 | |
| LZ4TU-5 | 2026-09-03 06:43:40 | 40.74566 | 23.72161 | 99° | 22km/h | 19882m | 4.0m/s | -56.4°C | 0.0% | 0hPa | 0V | 00:00:00 | 00:00:00 | 00:00:00 | |
| LZ4TU-5 | 2026-09-03 06:43:31 | 40.74578 | 23.72070 | 74° | 27km/h | 19840m | 5.6m/s | -56.4°C | 0.0% | 0hPa | 0V | 00:00:00 | 00:00:00 | 00:00:00 | |
| LZ4TU-5 | 2026-09-03 06:43:25 | 40.74581 | 23.72020 | 103° | 27km/h | 19813m | 3.8m/s | -56.4°C | 0.0% | 0hPa | 0V | 00:00:00 | 00:00:00 | 00:00:00 | |
| LZ4TU-5 | 2026-09-03 06:41:30 | 40.74340 | 23.71382 | 124° | 24km/h | 19263m | 5.4m/s | -52.8°C | 0.0% | 0hPa | 0V | 00:00:00 | 00:00:00 | 00:00:00 | |
| LZ4TU-5 | 2026-09-03 06:41:23 | 40.74350 | 23.71337 | 111° | 16km/h | 19230m | 4.8m/s | -52.8°C | 0.0% | 0hPa | 0V | 00:00:00 | 00:00:00 | 00:00:00 | |
| LZ4TU-5 | 2026-09-03 06:41:17 | 40.74360 | 23.71308 | 95° | 16km/h | 19203m | 5.4m/s | -52.8°C | 0.0% | 0hPa | 0V | 00:00:00 | 00:00:00 | 00:00:00 | |
| LZ4TU-5 | 2026-09-03 06:41:12 | 40.74366 | 23.71283 | 131° | 16km/h | 19181m | 4.4m/s | -52.8°C | 0.0% | 0hPa | 0V | 00:00:00 | 00:00:00 | 00:00:00 | |
| LZ4TU-5 | 2026-09-03 06:39:18 | 40.74634 | 23.70425 | 101° | 26km/h | 18693m | 3.5m/s | -52.8°C | 0.0% | 0hPa | 0V | 00:00:00 | 00:00:00 | 00:00:00 | |
| LZ4TU-5 | 2026-09-03 06:39:13 | 40.74636 | 23.70376 | 80° | 27km/h | 18672m | 4.3m/s | -52.8°C | 0.0% | 0hPa | 0V | 00:00:00 | 00:00:00 | 00:00:00 | |
| LZ4TU-5 | 2026-09-03 06:39:04 | 40.74640 | 23.70292 | 101° | 33km/h | 18634m | 3.9m/s | -52.8°C | 0.0% | 0hPa | 0V | 00:00:00 | 00:00:00 | 00:00:00 | |
| LZ4TU-5 | 2026-09-03 06:39:00 | 40.74643 | 23.70259 | 98° | 18km/h | 18617m | 3.3m/s | -52.8°C | 0.0% | 0hPa | 0V | 00:00:00 | 00:00:00 | 00:00:00 | |
| LZ4TU-5 | 2026-09-03 06:38:55 | 40.74652 | 23.70223 | 111° | 24km/h | 18596m | 3.4m/s | -52.8°C | 0.0% | 0hPa | 0V | 00:00:00 | 00:00:00 | 00:00:00 | |
| LZ4TU-5 | 2026-09-03 06:38:47 | 40.74653 | 23.70161 | 104° | 24km/h | 18562m | 4.7m/s | -52.8°C | 0% | 0hPa | 0V | 00:00:00 | 00:00:00 | 00:00:00 | |
| LZ4TU-5 | 2026-09-03 06:38:37 | 40.74667 | 23.70068 | 107° | 26km/h | 18521m | 3.7m/s | -52.8°C | 0.0% | 0hPa | 0V | 00:00:00 | 00:00:00 | 00:00:00 | |
| LZ4TU-5 | 2026-09-03 06:38:32 | 40.74681 | 23.70019 | 105° | 29km/h | 18501m | 3.5m/s | -52.8°C | 0.0% | 0hPa | 0V | 00:00:00 | 00:00:00 | 00:00:00 | |
| LZ4TU-5 | 2026-09-03 06:38:26 | 40.74693 | 23.69956 | 108° | 29km/h | 18475m | 3.3m/s | -52.8°C | 0.0% | 0hPa | 0V | 00:00:00 | 00:00:00 | 00:00:00 | |
| LZ4TU-5 | 2026-09-03 06:38:13 | 40.74719 | 23.69816 | 118° | 37km/h | 18419m | 3.9m/s | -52.8°C | 0.0% | 0hPa | 0V | 00:00:00 | 00:00:00 | 00:00:00 | |
| LZ4TU-5 | 2026-09-03 06:38:07 | 40.74734 | 23.69758 | 100° | 33km/h | 18395m | 3.2m/s | -52.8°C | 0.0% | 0hPa | 0V | 00:00:00 | 00:00:00 | 00:00:00 | |
| LZ4TU-5 | 2026-09-03 06:38:01 | 40.74747 | 23.69697 | 117° | 33km/h | 18370m | 3.2m/s | -52.8°C | 0.0% | 0hPa | 0V | 00:00:00 | 00:00:00 | 00:00:00 | |
| LZ4TU-5 | 2026-09-03 06:37:54 | 40.74763 | 23.69641 | 119° | 26km/h | 18341m | 4.7m/s | -52.8°C | 0.0% | 0hPa | 0V | 00:00:00 | 00:00:00 | 00:00:00 | |
| LZ4TU-5 | 2026-09-03 06:37:48 | 40.74778 | 23.69576 | 106° | 27km/h | 18317m | 4.7m/s | -52.8°C | 0.0% | 0hPa | 0V | 00:00:00 | 00:00:00 | 00:00:00 | |
| LZ4TU-5 | 2026-09-03 06:35:52 | 40.74957 | 23.68317 | 92° | 42km/h | 17831m | 4.8m/s | -52.8°C | 0.0% | 0hPa | 0V | 00:00:00 | 00:00:00 | 00:00:00 | |
| LZ4TU-5 | 2026-09-03 06:35:48 | 40.74960 | 23.68259 | 88° | 44km/h | 17813m | 3.8m/s | -52.8°C | 0.0% | 0hPa | 0V | 00:00:00 | 00:00:00 | 00:00:00 | |
| LZ4TU-5 | 2026-09-03 06:35:43 | 40.74958 | 23.68192 | 86° | 37km/h | 17791m | 4.8m/s | -52.8°C | 0.0% | 0hPa | 0V | 00:00:00 | 00:00:00 | 00:00:00 | |
| LZ4TU-5 | 2026-09-03 06:35:38 | 40.74956 | 23.68118 | 91° | 53km/h | 17772m | 3.7m/s | -52.8°C | 0.0% | 0hPa | 0V | 00:00:00 | 00:00:00 | 00:00:00 | |
| LZ4TU-5 | 2026-09-03 06:35:31 | 40.74945 | 23.68013 | 74° | 44km/h | 17741m | 4.5m/s | -52.8°C | 0.0% | 0hPa | 0V | 00:00:00 | 00:00:00 | 00:00:00 | |
| LZ4TU-5 | 2026-09-03 06:35:20 | 40.74916 | 23.67857 | 71° | 42km/h | 17693m | 3.1m/s | -52.8°C | 0.0% | 0hPa | 0V | 00:00:00 | 00:00:00 | 00:00:00 | |
| LZ4TU-5 | 2026-09-03 06:35:15 | 40.74899 | 23.67779 | 71° | 57km/h | 17672m | 4.5m/s | -52.9°C | 0.0% | 0hPa | 0V | 00:00:00 | 00:00:00 | 00:00:00 | |
| LZ4TU-5 | 2026-09-03 06:35:10 | 40.74877 | 23.67695 | 69° | 47km/h | 17651m | 5.3m/s | -52.9°C | 0.0% | 0hPa | 0V | 00:00:00 | 00:00:00 | 00:00:00 | |
| LZ4TU-5 | 2026-09-03 06:35:05 | 40.74853 | 23.67617 | 71° | 60km/h | 17630m | 4.1m/s | -52.9°C | 0.0% | 0hPa | 0V | 00:00:00 | 00:00:00 | 00:00:00 | |
| LZ4TU-5 | 2026-09-03 06:35:01 | 40.74832 | 23.67549 | 72° | 49km/h | 17613m | 4.4m/s | -52.9°C | 0.0% | 0hPa | 0V | 00:00:00 | 00:00:00 | 00:00:00 | |
| LZ4TU-5 | 2026-09-03 06:34:55 | 40.74797 | 23.67448 | 65° | 55km/h | 17589m | 4.3m/s | -52.9°C | 0% | 0hPa | 0V | 00:00:00 | 00:00:00 | 00:00:00 | |
| LZ4TU-5 | 2026-09-03 06:34:13 | 40.74546 | 23.66775 | 68° | 47km/h | 17408m | 4.5m/s | -52.9°C | 0.0% | 0hPa | 0V | 00:00:00 | 00:00:00 | 00:00:00 | |
| LZ4TU-5 | 2026-09-03 06:34:07 | 40.74517 | 23.66688 | 64° | 40km/h | 17383m | 3.7m/s | -52.9°C | 0.0% | 0hPa | 0V | 00:00:00 | 00:00:00 | 00:00:00 | |
| LZ4TU-5 | 2026-09-03 06:33:19 | 40.74397 | 23.66119 | 88° | 31km/h | 17181m | 5.5m/s | -52.9°C | 0.0% | 0hPa | 0V | 00:00:00 | 00:00:00 | 00:00:00 | |
| LZ4TU-5 | 2026-09-03 06:33:07 | 40.74403 | 23.65998 | 93° | 37km/h | 17130m | 5.3m/s | -52.9°C | 0.0% | 0hPa | 0V | 00:00:00 | 00:00:00 | 00:00:00 | |
| LZ4TU-5 | 2026-09-03 06:32:55 | 40.74403 | 23.65858 | 86° | 42km/h | 17078m | 3.6m/s | -52.9°C | 0% | 0hPa | 0V | 00:00:00 | 00:00:00 | 00:00:00 | |
| LZ4TU-5 | 2026-09-03 06:32:13 | 40.74385 | 23.65234 | 93° | 55km/h | 16905m | 4.1m/s | -52.9°C | 0.0% | 0hPa | 0V | 00:00:00 | 00:00:00 | 00:00:00 | |
| LZ4TU-5 | 2026-09-03 06:32:01 | 40.74377 | 23.65027 | 88° | 60km/h | 16855m | 3.3m/s | -52.9°C | 0.0% | 0hPa | 0V | 00:00:00 | 00:00:00 | 00:00:00 | |
| LZ4TU-5 | 2026-09-03 06:31:55 | 40.74368 | 23.64917 | 85° | 55km/h | 16832m | 5.4m/s | -52.9°C | 0.0% | 0hPa | 0V | 00:00:00 | 00:00:00 | 00:00:00 | |
| LZ4TU-5 | 2026-09-03 06:31:19 | 40.74293 | 23.64218 | 80° | 60km/h | 16682m | 3.7m/s | -52.9°C | 0.0% | 0hPa | 0V | 00:00:00 | 00:00:00 | 00:00:00 | |
| LZ4TU-5 | 2026-09-03 06:31:13 | 40.74275 | 23.64103 | 78° | 60km/h | 16658m | 4.5m/s | -52.9°C | 0.0% | 0hPa | 0V | 00:00:00 | 00:00:00 | 00:00:00 | |
| LZ4TU-5 | 2026-09-03 06:30:55 | 40.74173 | 23.63735 | 67° | 69km/h | 16584m | 4.6m/s | -52.9°C | 0% | 0hPa | 0V | 00:00:00 | 00:00:00 | 00:00:00 | |
| LZ4TU-5 | 2026-09-03 06:28:49 | 40.73584 | 23.61443 | 63° | 58km/h | 16064m | 3.7m/s | -52.9°C | 0.0% | 0hPa | 0V | 00:00:00 | 00:00:00 | 00:00:00 | |
| LZ4TU-5 | 2026-09-03 06:28:13 | 40.73463 | 23.60875 | 77° | 46km/h | 15914m | 3.7m/s | -52.9°C | 0% | 0hPa | 0V | 00:00:00 | 00:00:00 | 00:00:00 | |
| LZ4TU-5 | 2026-09-03 06:25:13 | 40.73364 | 23.57137 | 79° | 86km/h | 15173m | 3.5m/s | -52.9°C | 0.0% | 0hPa | 0V | 00:00:00 | 00:00:00 | 00:00:00 | |
| LZ4TU-5 | 2026-09-03 06:23:32 | 40.72663 | 23.54049 | 71° | 102km/h | 14777m | 3.3m/s | -52.8°C | 0.0% | 0hPa | 0V | 00:00:00 | 00:00:00 | 00:00:00 | |
| LZ4TU-5 | 2026-09-03 06:23:26 | 40.72609 | 23.53849 | 70° | 108km/h | 14752m | 5.4m/s | -52.8°C | 0.0% | 0hPa | 0V | 00:00:00 | 00:00:00 | 00:00:00 | |
| LZ4TU-5 | 2026-09-03 06:23:21 | 40.72560 | 23.53684 | 72° | 104km/h | 14731m | 3.8m/s | -52.8°C | 0.0% | 0hPa | 0V | 00:00:00 | 00:00:00 | 00:00:00 | |
| LZ4TU-5 | 2026-09-03 06:23:16 | 40.72517 | 23.53527 | 71° | 106km/h | 14712m | 4.1m/s | -52.8°C | 0.0% | 0hPa | 0V | 00:00:00 | 00:00:00 | 00:00:00 | |
| LZ4TU-5 | 2026-09-03 06:23:11 | 40.72466 | 23.53362 | 72° | 104km/h | 14693m | 4.7m/s | -52.8°C | 0.0% | 0hPa | 0V | 00:00:00 | 00:00:00 | 00:00:00 | |
| LZ4TU-5 | 2026-09-03 06:23:06 | 40.72423 | 23.53203 | 68° | 102km/h | 14674m | 3.8m/s | -52.8°C | 0.0% | 0hPa | 0V | 00:00:00 | 00:00:00 | 00:00:00 | |
| LZ4TU-5 | 2026-09-03 06:22:59 | 40.72352 | 23.52978 | 70° | 102km/h | 14646m | 4.9m/s | -52.8°C | 0.0% | 0hPa | 0V | 00:00:00 | 00:00:00 | 00:00:00 | |
| LZ4TU-5 | 2026-09-03 06:22:45 | 40.72236 | 23.52533 | 74° | 102km/h | 14590m | 3.1m/s | -52.8°C | 0.0% | 0hPa | 0V | 00:00:00 | 00:00:00 | 00:00:00 | |
| LZ4TU-5 | 2026-09-03 06:22:02 | 40.71901 | 23.51234 | 70° | 99km/h | 14423m | 4.0m/s | -52.8°C | 0.0% | 0hPa | 0V | 00:00:00 | 00:00:00 | 00:00:00 | |
| LZ4TU-5 | 2026-09-03 06:21:52 | 40.71811 | 23.50942 | 66° | 95km/h | 14384m | 4.3m/s | -52.8°C | 0.0% | 0hPa | 0V | 00:00:00 | 00:00:00 | 00:00:00 | |
| LZ4TU-5 | 2026-09-03 06:21:47 | 40.71769 | 23.50790 | 71° | 93km/h | 14366m | 3.5m/s | -52.8°C | 0% | 0hPa | 0V | 00:00:00 | 00:00:00 | 00:00:00 | |
| LZ4TU-5 | 2026-09-03 06:21:37 | 40.71679 | 23.50492 | 72° | 99km/h | 14326m | 4.2m/s | -52.9°C | 0.0% | 0hPa | 0V | 00:00:00 | 00:00:00 | 00:00:00 | |
| LZ4TU-5 | 2026-09-03 06:21:21 | 40.71530 | 23.50008 | 68° | 100km/h | 14264m | 3.0m/s | -52.9°C | 0.0% | 0hPa | 0V | 00:00:00 | 00:00:00 | 00:00:00 | |
| LZ4TU-5 | 2026-09-03 06:21:13 | 40.71450 | 23.49760 | 70° | 104km/h | 14234m | 3.0m/s | -52.9°C | 0.0% | 0hPa | 0V | 00:00:00 | 00:00:00 | 00:00:00 | |
| LZ4TU-5 | 2026-09-03 06:21:07 | 40.71388 | 23.49574 | 65° | 104km/h | 14211m | 4.5m/s | -52.9°C | 0.0% | 0hPa | 0V | 00:00:00 | 00:00:00 | 00:00:00 | |
| LZ4TU-5 | 2026-09-03 06:21:03 | 40.71344 | 23.49440 | 69° | 113km/h | 14195m | 3.6m/s | -52.9°C | 0.0% | 0hPa | 0V | 00:00:00 | 00:00:00 | 00:00:00 | |
| LZ4TU-5 | 2026-09-03 06:20:52 | 40.71225 | 23.49084 | 68° | 108km/h | 14153m | 4.3m/s | -52.9°C | 0.0% | 0hPa | 0V | 00:00:00 | 00:00:00 | 00:00:00 | |
| LZ4TU-5 | 2026-09-03 06:20:48 | 40.71184 | 23.48958 | 69° | 100km/h | 14136m | 3.2m/s | -52.9°C | 0.0% | 0hPa | 0V | 00:00:00 | 00:00:00 | 00:00:00 | |
| LZ4TU-5 | 2026-09-03 06:20:42 | 40.71121 | 23.48761 | 67° | 111km/h | 14112m | 4.2m/s | -52.9°C | 0.0% | 0hPa | 0V | 00:00:00 | 00:00:00 | 00:00:00 |